עמוד ראשי
METAR-TAF:

METAR-TAF

שדות תעופה :

Clines Corners, ניו מקסיקו, ארצות הברית

קו רוחב: 35-00N, קו אורך: 105-40W, גובה: 2160מטר

תצפית מזג אוויר נוכחית

הדו"ח נערך לפני 1 שעות ו 10דקות, בשעה 01:53 UTC
רוח 5קשר מכיוון מזרח/דרום-מזרח
טמפרטורת 22 צלסיוס
לחות 53%
לחץ 1031 hPa
ראות: 16.1קילומטר
שמיים נקיים

METAR: KCQC 250153Z AUTO 12005KT 10SM CLR 22/12 A3045 RMK AO2 SLP217 T02170117 $

זמן: 21:03 (03:03 UTC)


TAF: חסר

תצפיות ותחזיות מזג אוויר לגבי יותר מ- 4,000 שדות תעופה ברחבי העולם. דוחות METAR ו- TAF.

התחנות הזמינות מסומנות בנקודות צהובות ואדומות על גבי המפה.

העבר את העכבר לנקודה הצבעונית על מנת לראות את שם התחנה.

לאחר מכן, לחץ כדי לראות את תוכן ואת תחזיות מזג האוויר.

כדי לשנות את המפה: לחץ על הכפתורים הירוקים עם הפלוס השחור כדי להתקרב; על הכפתור הירוק עם המקף כדי להתרחק; או בחיצים הירוקים למפות סמוכות.


METAR-TAF: